AAL585 KJFK-TBPB
Flight info
| Callsign | AAL585 |
|---|---|
| Flight time | N/A |
| Altitude | 35000 |
| Route | SHIPP Y492 SQUAD/M080F350 DCT DARUX L456 PRCHA/M080F370 L456 HANCY/N0468F370 L456 THANK DCT COY DCT LEEOO L454 ILURI UA555 BGI |
| Aircraft | B738/M-SDE2E3FGHIRWXY/LB1 |
Departure
| Time | 2026-05-03 20:54 |
|---|---|
| Airport | John F. Kennedy International Airport (KJFK) |
Arrival
| Time | N/A |
|---|---|
| Airport | Grantley Adams International Airport (TBPB) |
| Time | Latitude | Longitude | Altitude | Speed | Heading |
|---|---|---|---|---|---|
| 2026-05-03 20:23 | 40.64711 | -73.79172 | 17 ft | 0 kts | 8° |
| 2026-05-03 20:37 | 40.64707 | -73.79173 | 17 ft | 3 kts | 7° |
| 2026-05-03 20:37 | 40.64681 | -73.79177 | 19 ft | 4 kts | 8° |
| 2026-05-03 20:38 | 40.64656 | -73.79185 | 19 ft | 4 kts | 17° |
| 2026-05-03 20:38 | 40.64636 | -73.79196 | 18 ft | 3 kts | 42° |
| 2026-05-03 20:38 | 40.64619 | -73.79218 | 17 ft | 2 kts | 36° |
| 2026-05-03 20:38 | 40.64606 | -73.79224 | 18 ft | 2 kts | 334° |
| 2026-05-03 20:39 | 40.64597 | -73.79216 | 18 ft | 1 kts | 313° |
| 2026-05-03 20:42 | 40.64604 | -73.79230 | 19 ft | 4 kts | 297° |
| 2026-05-03 20:42 | 40.64605 | -73.79286 | 17 ft | 8 kts | 268° |
| 2026-05-03 20:42 | 40.64613 | -73.79362 | 17 ft | 10 kts | 276° |
| 2026-05-03 20:42 | 40.64611 | -73.79458 | 18 ft | 11 kts | 264° |
| 2026-05-03 20:43 | 40.64606 | -73.79506 | 18 ft | 0 kts | 254° |
| 2026-05-03 20:43 | 40.64590 | -73.79515 | 20 ft | 6 kts | 181° |
| 2026-05-03 20:43 | 40.64544 | -73.79508 | 19 ft | 8 kts | 175° |
| 2026-05-03 20:43 | 40.64486 | -73.79501 | 19 ft | 9 kts | 175° |
| 2026-05-03 20:44 | 40.64416 | -73.79493 | 19 ft | 11 kts | 175° |
| 2026-05-03 20:44 | 40.64335 | -73.79493 | 19 ft | 13 kts | 183° |
| 2026-05-03 20:44 | 40.64243 | -73.79493 | 19 ft | 14 kts | 165° |
| 2026-05-03 20:44 | 40.64219 | -73.79473 | 20 ft | 0 kts | 137° |
| 2026-05-03 20:45 | 40.64214 | -73.79477 | 20 ft | 1 kts | 205° |
| 2026-05-03 20:45 | 40.64176 | -73.79499 | 20 ft | 8 kts | 187° |
| 2026-05-03 20:45 | 40.64111 | -73.79501 | 19 ft | 11 kts | 171° |
| 2026-05-03 20:45 | 40.64042 | -73.79436 | 20 ft | 14 kts | 122° |
| 2026-05-03 20:46 | 40.63983 | -73.79310 | 19 ft | 18 kts | 119° |
| 2026-05-03 20:46 | 40.63914 | -73.79152 | 19 ft | 22 kts | 121° |
| 2026-05-03 20:46 | 40.63830 | -73.78969 | 20 ft | 25 kts | 121° |
| 2026-05-03 20:46 | 40.63734 | -73.78758 | 20 ft | 28 kts | 121° |
| 2026-05-03 20:47 | 40.63629 | -73.78529 | 20 ft | 29 kts | 121° |
| 2026-05-03 20:47 | 40.63528 | -73.78307 | 20 ft | 27 kts | 120° |
| 2026-05-03 20:47 | 40.63437 | -73.78095 | 20 ft | 26 kts | 120° |
| 2026-05-03 20:47 | 40.63349 | -73.77897 | 20 ft | 24 kts | 120° |
| 2026-05-03 20:48 | 40.63267 | -73.77711 | 23 ft | 23 kts | 120° |
| 2026-05-03 20:48 | 40.63186 | -73.77535 | 21 ft | 22 kts | 121° |
| 2026-05-03 20:48 | 40.63112 | -73.77371 | 20 ft | 7 kts | 121° |
| 2026-05-03 20:48 | 40.63102 | -73.77349 | 20 ft | 1 kts | 121° |
| 2026-05-03 20:49 | 40.63099 | -73.77340 | 20 ft | 1 kts | 121° |
| 2026-05-03 20:49 | 40.63089 | -73.77320 | 20 ft | 4 kts | 121° |
| 2026-05-03 20:49 | 40.63058 | -73.77282 | 20 ft | 8 kts | 172° |
| 2026-05-03 20:49 | 40.63002 | -73.77317 | 21 ft | 11 kts | 208° |
| 2026-05-03 20:50 | 40.62979 | -73.77335 | 22 ft | 0 kts | 212° |
| 2026-05-03 20:51 | 40.62978 | -73.77335 | 22 ft | 1 kts | 212° |
| 2026-05-03 20:51 | 40.62960 | -73.77350 | 22 ft | 8 kts | 211° |
| 2026-05-03 20:52 | 40.62917 | -73.77419 | 23 ft | 11 kts | 270° |
| 2026-05-03 20:52 | 40.62928 | -73.77458 | 24 ft | 0 kts | 299° |
| 2026-05-03 20:53 | 40.62933 | -73.77470 | 23 ft | 7 kts | 299° |
| 2026-05-03 20:53 | 40.63013 | -73.77658 | 26 ft | 50 kts | 301° |
| 2026-05-03 20:53 | 40.63312 | -73.78306 | 21 ft | 114 kts | 301° |
| 2026-05-03 20:54 | 40.63796 | -73.79376 | 207 ft | 148 kts | 301° |
| 2026-05-03 20:54 | 40.64932 | -73.81766 | 1880 ft | 148 kts | 296° |
| 2026-05-03 20:54 | 40.65501 | -73.83009 | 2403 ft | 173 kts | 304° |
| 2026-05-03 20:55 | 40.65872 | -73.84579 | 2823 ft | 193 kts | 266° |
| 2026-05-03 20:55 | 40.65179 | -73.86136 | 3395 ft | 212 kts | 223° |
| 2026-05-03 20:55 | 40.63756 | -73.86876 | 3993 ft | 226 kts | 202° |
| 2026-05-03 20:55 | 40.62272 | -73.87564 | 4550 ft | 226 kts | 209° |
| 2026-05-03 20:56 | 40.60829 | -73.88362 | 5197 ft | 226 kts | 208° |
| 2026-05-03 20:56 | 40.59372 | -73.88702 | 5639 ft | 246 kts | 178° |
| 2026-05-03 20:56 | 40.57677 | -73.87936 | 6019 ft | 268 kts | 156° |
| 2026-05-03 20:56 | 40.55971 | -73.86861 | 6553 ft | 273 kts | 159° |
| 2026-05-03 20:57 | 40.54247 | -73.85854 | 7146 ft | 274 kts | 162° |
| 2026-05-03 20:57 | 40.52363 | -73.85320 | 7592 ft | 281 kts | 181° |
| 2026-05-03 20:57 | 40.50388 | -73.85159 | 8080 ft | 292 kts | 180° |
| 2026-05-03 20:57 | 40.48342 | -73.84920 | 8791 ft | 297 kts | 178° |
| 2026-05-03 20:58 | 40.46455 | -73.84258 | 9480 ft | 307 kts | 153° |
| 2026-05-03 20:58 | 40.44856 | -73.82384 | 10170 ft | 313 kts | 124° |
| 2026-05-03 20:58 | 40.43884 | -73.79767 | 10484 ft | 329 kts | 105° |
| 2026-05-03 20:58 | 40.43271 | -73.76789 | 10682 ft | 350 kts | 102° |
| 2026-05-03 20:59 | 40.42669 | -73.73589 | 10845 ft | 371 kts | 102° |
| 2026-05-03 20:59 | 40.42038 | -73.70215 | 11002 ft | 390 kts | 102° |
| 2026-05-03 20:59 | 40.41368 | -73.66699 | 11267 ft | 405 kts | 102° |
| 2026-05-03 20:59 | 40.40666 | -73.63077 | 11839 ft | 410 kts | 102° |
| 2026-05-03 21:00 | 40.39950 | -73.59435 | 12478 ft | 414 kts | 103° |
| 2026-05-03 21:00 | 40.39458 | -73.56958 | 12881 ft | 417 kts | 103° |
| 2026-05-03 21:00 | 40.38472 | -73.52047 | 13657 ft | 423 kts | 103° |
| 2026-05-03 21:00 | 40.37713 | -73.48300 | 14180 ft | 428 kts | 103° |
| 2026-05-03 21:01 | 40.36944 | -73.44511 | 14715 ft | 431 kts | 103° |
| 2026-05-03 21:01 | 40.36167 | -73.40693 | 15240 ft | 435 kts | 103° |
| 2026-05-03 21:01 | 40.35382 | -73.36838 | 15762 ft | 439 kts | 103° |
| 2026-05-03 21:01 | 40.34589 | -73.32950 | 16270 ft | 443 kts | 103° |
| 2026-05-03 21:02 | 40.33797 | -73.29078 | 16769 ft | 447 kts | 103° |
| 2026-05-03 21:02 | 40.32872 | -73.25172 | 17260 ft | 452 kts | 111° |
| 2026-05-03 21:02 | 40.31453 | -73.21464 | 17751 ft | 457 kts | 122° |
| 2026-05-03 21:02 | 40.29652 | -73.18010 | 18242 ft | 460 kts | 125° |
| 2026-05-03 21:03 | 40.27845 | -73.14534 | 18633 ft | 465 kts | 124° |
| 2026-05-03 21:03 | 40.26061 | -73.10978 | 19065 ft | 468 kts | 123° |
| 2026-05-03 21:03 | 40.24284 | -73.07389 | 19496 ft | 471 kts | 123° |
| 2026-05-03 21:03 | 40.22496 | -73.03782 | 19921 ft | 474 kts | 123° |
| 2026-05-03 21:04 | 40.20690 | -73.00157 | 20332 ft | 477 kts | 123° |
| 2026-05-03 21:04 | 40.18892 | -72.96557 | 20727 ft | 480 kts | 123° |
| 2026-05-03 21:04 | 40.17059 | -72.92890 | 21116 ft | 483 kts | 123° |
| 2026-05-03 21:04 | 40.15210 | -72.89198 | 21506 ft | 486 kts | 124° |
| 2026-05-03 21:05 | 40.13350 | -72.85483 | 21876 ft | 490 kts | 124° |
| 2026-05-03 21:05 | 40.11479 | -72.81752 | 22251 ft | 493 kts | 124° |
| 2026-05-03 21:05 | 40.09595 | -72.77981 | 22605 ft | 496 kts | 123° |
| 2026-05-03 21:05 | 40.07794 | -72.74129 | 22966 ft | 499 kts | 121° |
| 2026-05-03 21:06 | 40.06041 | -72.70193 | 23321 ft | 502 kts | 120° |
| 2026-05-03 21:06 | 40.04291 | -72.66230 | 23652 ft | 505 kts | 120° |
| 2026-05-03 21:06 | 40.02524 | -72.62265 | 23976 ft | 506 kts | 121° |
| 2026-05-03 21:06 | 40.00735 | -72.58302 | 24308 ft | 507 kts | 121° |
| 2026-05-03 21:07 | 39.98954 | -72.54393 | 24614 ft | 509 kts | 122° |
| 2026-05-03 21:07 | 39.97139 | -72.50422 | 24910 ft | 511 kts | 122° |
| 2026-05-03 21:07 | 39.95654 | -72.47143 | 25145 ft | 512 kts | 121° |
| 2026-05-03 21:07 | 39.93866 | -72.43102 | 25424 ft | 514 kts | 121° |
| 2026-05-03 21:08 | 39.92092 | -72.39043 | 25701 ft | 516 kts | 121° |
| 2026-05-03 21:08 | 39.90317 | -72.34972 | 25971 ft | 518 kts | 121° |
| 2026-05-03 21:08 | 39.88532 | -72.30893 | 26221 ft | 520 kts | 121° |
| 2026-05-03 21:08 | 39.86734 | -72.26800 | 26475 ft | 521 kts | 122° |
| 2026-05-03 21:09 | 39.84926 | -72.22701 | 26723 ft | 523 kts | 122° |
| 2026-05-03 21:09 | 39.83104 | -72.18583 | 27034 ft | 523 kts | 122° |
| 2026-05-03 21:09 | 39.81308 | -72.14528 | 27416 ft | 521 kts | 122° |
| 2026-05-03 21:09 | 39.79502 | -72.10457 | 27806 ft | 520 kts | 122° |
| 2026-05-03 21:10 | 39.77691 | -72.06377 | 28150 ft | 519 kts | 122° |
| 2026-05-03 21:10 | 39.75887 | -72.02318 | 28459 ft | 520 kts | 123° |
| 2026-05-03 21:10 | 39.74393 | -71.98962 | 28729 ft | 519 kts | 123° |
| 2026-05-03 21:10 | 39.72557 | -71.94921 | 29062 ft | 519 kts | 124° |
| 2026-05-03 21:11 | 39.70694 | -71.90911 | 29401 ft | 518 kts | 124° |
| 2026-05-03 21:11 | 39.68814 | -71.86908 | 29750 ft | 517 kts | 125° |
| 2026-05-03 21:11 | 39.66938 | -71.82920 | 30074 ft | 517 kts | 125° |
| 2026-05-03 21:11 | 39.65066 | -71.78935 | 30314 ft | 517 kts | 125° |
| 2026-05-03 21:12 | 39.63191 | -71.74937 | 30545 ft | 517 kts | 125° |
| 2026-05-03 21:12 | 39.61346 | -71.70998 | 30781 ft | 518 kts | 125° |
| 2026-05-03 21:12 | 39.59480 | -71.67012 | 31039 ft | 517 kts | 125° |
| 2026-05-03 21:12 | 39.57615 | -71.63032 | 31286 ft | 517 kts | 125° |
| 2026-05-03 21:13 | 39.55745 | -71.59049 | 31513 ft | 517 kts | 126° |
| 2026-05-03 21:13 | 39.53874 | -71.55067 | 31733 ft | 518 kts | 126° |
| 2026-05-03 21:13 | 39.52002 | -71.51091 | 31965 ft | 517 kts | 126° |
| 2026-05-03 21:13 | 39.50122 | -71.47101 | 32196 ft | 517 kts | 126° |
| 2026-05-03 21:14 | 39.48242 | -71.43115 | 32413 ft | 518 kts | 126° |
| 2026-05-03 21:14 | 39.46362 | -71.39136 | 32631 ft | 518 kts | 126° |
| 2026-05-03 21:14 | 39.44339 | -71.35311 | 32815 ft | 511 kts | 136° |
| 2026-05-03 21:14 | 39.41840 | -71.32106 | 33009 ft | 500 kts | 148° |
| 2026-05-03 21:15 | 39.39021 | -71.29564 | 33260 ft | 489 kts | 158° |
| 2026-05-03 21:15 | 39.35991 | -71.27701 | 33476 ft | 477 kts | 167° |
| 2026-05-03 21:15 | 39.32926 | -71.26205 | 33689 ft | 477 kts | 167° |
| 2026-05-03 21:15 | 39.31875 | -71.25685 | 33751 ft | 477 kts | 167° |